»·PEaware :: N427LJ KSNA-KSNA

N427LJ :: KSNA-KSNA

FLIGHT INFORMATION

Flight Status: Arrived
Operator: Privately registered:
United States
More flights under this callsign
Pilot: Anonymous 27948 (27948)
Aircraft: CESSNA 172 SKYHAWK
(C172)
More flights by this aircraft type
Origin: KSNA John Wayne-Orange Co
United States
Destination: KSNA John Wayne-Orange Co
United States
More flights between these airports :: More routes between these airports
Route: SLI
File this flight plan on PilotEdge
Remarks: I-1 RATING
Altitude:
(Current/Filed)
3,000ft
Speed:
(Current/Filed)
120kts
Departed: 14-Jun-20 11:49 AM
Arrived: 14-Jun-20 12:17 PM
Distance/Time
Traveled:
0nm/0:28
Distance/Time
To Go:
Arrived

Flight Plot

Page will automatically refresh every two minutes.


Map Options




Map Legend


Flown Route
Filed Route
Departure Airport
Arrival Airport
Navaid (VOR, NDB)
Fix

Horizontal Profiles

Position Reports

Time Latitude Longitude Heading Altitude Ground
Speed
14-Jun-20 11:31 33.670082 -117.868628 309 60ft 0kts
14-Jun-20 11:32 33.670082 -117.868628 309 60ft 0kts
14-Jun-20 11:33 33.670082 -117.868628 309 60ft 0kts
14-Jun-20 11:34 33.670082 -117.868628 309 60ft 0kts
14-Jun-20 11:35 33.670082 -117.868628 309 60ft 0kts
14-Jun-20 11:36 33.670082 -117.868628 309 60ft 0kts
14-Jun-20 11:37 33.670082 -117.868628 309 60ft 0kts
14-Jun-20 11:38 33.670082 -117.868628 309 60ft 0kts
14-Jun-20 11:39 33.670082 -117.868628 309 60ft 0kts
14-Jun-20 11:40 33.670303 -117.868958 307 60ft 3kts
14-Jun-20 11:41 33.670876 -117.869101 31 60ft 2kts
14-Jun-20 11:42 33.672285 -117.867973 23 60ft 4kts
14-Jun-20 11:43 33.673975 -117.867138 17 60ft 8kts
14-Jun-20 11:44 33.675881 -117.865998 21 60ft 0kts
14-Jun-20 11:45 33.678767 -117.864135 27 60ft 10kts
14-Jun-20 11:46 33.679929 -117.863609 307 60ft 0kts
14-Jun-20 11:47 33.679942 -117.863630 307 60ft 2kts
14-Jun-20 11:48 33.672504 -117.869108 209 310ft 76kts
14-Jun-20 11:49 33.660516 -117.889475 240 1368ft 78kts
14-Jun-20 11:50 33.649183 -117.914337 241 2006ft 106kts
14-Jun-20 11:51 33.634407 -117.947027 241 2000ft 113kts
14-Jun-20 11:52 33.619348 -117.980364 242 1999ft 114kts
14-Jun-20 11:53 33.637597 -117.995945 24 2276ft 116kts
14-Jun-20 11:54 33.666265 -117.978985 26 2875ft 113kts
14-Jun-20 11:55 33.696749 -117.960825 26 2997ft 122kts
14-Jun-20 11:56 33.725440 -117.943711 26 2999ft 114kts
14-Jun-20 11:57 33.753891 -117.926733 26 3000ft 114kts
14-Jun-20 11:58 33.782197 -117.909836 26 3000ft 114kts
14-Jun-20 11:59 33.810670 -117.892831 26 3000ft 114kts
14-Jun-20 12:00 33.839054 -117.875873 26 3000ft 114kts
14-Jun-20 12:01 33.867544 -117.858845 26 3000ft 114kts
14-Jun-20 12:02 33.879347 -117.826578 81 2999ft 110kts
14-Jun-20 12:03 33.883606 -117.790394 81 2999ft 109kts
14-Jun-20 12:04 33.887853 -117.754327 81 2999ft 107kts
14-Jun-20 12:05 33.899451 -117.725894 359 2997ft 103kts
14-Jun-20 12:06 33.899867 -117.748351 187 2999ft 102kts
14-Jun-20 12:07 33.871294 -117.749653 189 2999ft 103kts
14-Jun-20 12:08 33.844590 -117.762054 206 2999ft 103kts
14-Jun-20 12:09 33.819877 -117.777342 207 2792ft 93kts
14-Jun-20 12:10 33.795814 -117.792608 207 2572ft 99kts
14-Jun-20 12:11 33.772395 -117.807493 207 2090ft 93kts
14-Jun-20 12:12 33.749485 -117.822047 207 1592ft 94kts
14-Jun-20 12:13 33.726234 -117.836805 207 1085ft 95kts
14-Jun-20 12:14 33.703938 -117.850951 207 587ft 88kts
14-Jun-20 12:15 33.683270 -117.864015 206 143ft 81kts
14-Jun-20 12:16 33.670788 -117.871925 203 60ft 30kts
14-Jun-20 12:17 33.669271 -117.871766 133 60ft 0kts
14-Jun-20 12:18 33.669407 -117.870282 97 60ft 1kts
14-Jun-20 12:19 33.669362 -117.869970 45 60ft 0kts
14-Jun-20 12:20 33.669362 -117.869970 45 60ft 0kts

Navigation Log

Ident Type
Flight plan parsing failed, navigation log unavailable